Time;durP1;ratioP1;P1;durP2;ratioP2;P2;SDS_P1;SDS_P2;PMS_P1;PMS_P2;Temp;Humidity;BMP_temperature;BMP_pressure;BME280_temperature;BME280_humidity;BME280_pressure;Samples;Min_cycle;Max_cycle;Signal;HPM_P1;HPM_P2
2022/06/16 00:00:45;;;;;;;3.47;3.17;;;16.90;98.90;;;;;;4974759;28;20451;-72
2022/06/16 00:03:12;;;;;;;4.00;3.60;;;16.90;99.30;;;;;;4975014;28;20498;-72
2022/06/16 00:05:43;;;;;;;3.63;3.33;;;16.90;99.50;;;;;;4975325;28;20470;-72
2022/06/16 00:08:11;;;;;;;4.97;3.37;;;16.90;99.50;;;;;;4974611;28;20493;-72
2022/06/16 00:11:15;;;;;;;4.23;3.83;;;16.90;99.60;;;;;;4974392;28;20467;-72
2022/06/16 00:13:25;;;;;;;4.63;4.10;;;16.80;99.60;;;;;;4974636;28;20447;-72
2022/06/16 00:15:53;;;;;;;4.00;3.60;;;16.80;99.70;;;;;;4974907;28;20463;-72
2022/06/16 00:18:20;;;;;;;4.33;3.57;;;16.80;99.80;;;;;;4974344;28;20473;-72
2022/06/16 00:20:47;;;;;;;4.93;3.63;;;16.80;99.80;;;;;;4973954;28;20832;-72
2022/06/16 00:23:14;;;;;;;4.10;3.70;;;16.80;99.90;;;;;;4974592;28;20491;-72
2022/06/16 00:25:40;;;;;;;3.80;3.40;;;16.80;99.90;;;;;;4974296;28;20549;-72
2022/06/16 00:28:07;;;;;;;3.80;3.50;;;16.80;99.90;;;;;;4974135;28;20495;-72
2022/06/16 00:30:34;;;;;;;3.60;3.30;;;16.80;99.90;;;;;;4973393;28;20482;-72
2022/06/16 00:33:02;;;;;;;4.07;3.67;;;16.80;99.60;;;;;;4974417;28;20975;-72
2022/06/16 00:35:29;;;;;;;4.20;3.80;;;16.70;99.40;;;;;;4973679;28;20829;-72
2022/06/16 00:37:56;;;;;;;3.37;3.07;;;16.70;99.30;;;;;;4973856;28;20502;-72
2022/06/16 00:40:23;;;;;;;5.53;3.70;;;16.70;99.20;;;;;;4973465;28;20848;-72
2022/06/16 00:42:49;;;;;;;3.40;3.10;;;16.60;99.50;;;;;;4974009;28;20865;-72
2022/06/16 00:45:42;;;;;;;7.27;3.80;;;16.70;99.60;;;;;;4973943;28;20470;-72
2022/06/16 00:48:13;;;;;;;3.53;3.23;;;16.60;99.70;;;;;;4973858;28;21024;-72
2022/06/16 00:50:42;;;;;;;4.73;3.57;;;16.60;99.90;;;;;;4973183;28;20478;-72
2022/06/16 00:53:09;;;;;;;3.83;3.47;;;16.60;99.90;;;;;;4973870;28;20474;-72
2022/06/16 00:55:36;;;;;;;4.70;3.40;;;16.50;99.90;;;;;;4973773;28;20469;-72
2022/06/16 00:58:03;;;;;;;3.80;3.20;;;16.50;99.90;;;;;;4975612;28;20487;-72
2022/06/16 01:00:30;;;;;;;3.27;3.07;;;16.50;99.90;;;;;;4976007;28;20466;-73
2022/06/16 01:02:56;;;;;;;3.40;3.10;;;16.40;99.90;;;;;;4975179;28;20526;-72
2022/06/16 01:05:23;;;;;;;4.80;3.73;;;16.40;99.90;;;;;;4975881;28;20470;-72
2022/06/16 01:07:52;;;;;;;4.13;3.50;;;16.40;99.90;;;;;;4974974;28;20491;-72
2022/06/16 01:10:20;;;;;;;4.57;3.40;;;16.30;99.90;;;;;;4975228;28;20463;-72
2022/06/16 01:16:11;;;;;;;3.97;3.57;;;16.30;99.90;;;;;;4974148;28;20485;-72
2022/06/16 01:18:46;;;;;;;4.10;3.60;;;16.30;99.90;;;;;;4973632;28;20474;-72
2022/06/16 01:21:23;;;;;;;3.40;3.10;;;16.30;99.90;;;;;;4973457;28;20462;-72
2022/06/16 01:24:38;;;;;;;3.70;3.40;;;16.30;99.90;;;;;;4973384;28;20487;-71
2022/06/16 01:27:36;;;;;;;3.53;3.20;;;16.20;99.90;;;;;;4973717;28;20487;-71
2022/06/16 01:30:07;;;;;;;3.50;3.20;;;16.20;99.90;;;;;;4972783;28;20471;-71
2022/06/16 01:32:45;;;;;;;4.93;3.90;;;16.20;99.90;;;;;;4973017;28;20828;-71
2022/06/16 01:35:19;;;;;;;3.97;3.60;;;16.10;99.90;;;;;;4973040;28;20471;-71
2022/06/16 01:37:56;;;;;;;3.97;3.23;;;16.10;99.90;;;;;;4973250;28;20494;-71
2022/06/16 01:40:28;;;;;;;3.83;3.53;;;16.10;99.90;;;;;;4972188;28;20467;-71
2022/06/16 01:43:01;;;;;;;4.20;3.57;;;16.00;99.90;;;;;;4972943;28;20498;-71
2022/06/16 01:45:34;;;;;;;4.00;3.37;;;16.00;99.90;;;;;;4973143;28;20466;-71
2022/06/16 01:48:02;;;;;;;4.37;3.70;;;16.00;99.90;;;;;;4973220;28;20483;-71
2022/06/16 01:50:42;;;;;;;3.80;3.50;;;15.90;99.90;;;;;;4972940;28;20467;-71
2022/06/16 01:53:12;;;;;;;4.07;3.60;;;15.90;99.90;;;;;;4972898;28;20466;-71
2022/06/16 01:55:42;;;;;;;4.40;3.37;;;15.80;99.90;;;;;;4973055;28;20488;-71
2022/06/16 01:58:15;;;;;;;5.13;3.87;;;15.80;99.90;;;;;;4972560;28;20494;-71
2022/06/16 02:00:45;;;;;;;5.80;3.47;;;15.80;99.90;;;;;;4972004;28;20471;-71
2022/06/16 02:03:19;;;;;;;5.77;3.70;;;15.80;99.90;;;;;;4972707;28;20863;-71
2022/06/16 02:05:50;;;;;;;3.97;3.60;;;15.70;99.90;;;;;;4972657;28;20577;-71
2022/06/16 02:08:20;;;;;;;3.97;2.93;;;15.70;99.90;;;;;;4972337;28;20473;-71
2022/06/16 02:10:50;;;;;;;4.50;3.60;;;15.60;99.90;;;;;;4972154;28;20469;-71
2022/06/16 02:13:20;;;;;;;4.57;3.33;;;15.60;99.90;;;;;;4972673;28;20454;-72
2022/06/16 02:15:54;;;;;;;5.87;3.60;;;15.60;99.90;;;;;;4972455;28;20467;-71
2022/06/16 02:18:24;;;;;;;4.33;3.93;;;15.60;99.90;;;;;;4972661;28;20811;-71
2022/06/16 02:20:59;;;;;;;5.70;4.10;;;15.60;99.90;;;;;;4971879;28;20465;-72
2022/06/16 02:23:26;;;;;;;3.73;3.33;;;15.50;99.90;;;;;;4972524;28;20486;-71
2022/06/16 02:25:55;;;;;;;4.50;4.10;;;15.50;99.90;;;;;;4972475;28;20946;-71
2022/06/16 02:28:22;;;;;;;5.50;3.77;;;15.40;99.90;;;;;;4972442;28;20459;-71
2022/06/16 02:31:09;;;;;;;4.77;3.57;;;15.40;99.90;;;;;;4971316;28;20479;-71
2022/06/16 02:33:45;;;;;;;3.90;3.50;;;15.40;99.90;;;;;;4972075;28;20465;-72
2022/06/16 02:36:23;;;;;;;4.60;4.20;;;15.30;99.90;;;;;;4973034;28;20495;-71
2022/06/16 02:39:00;;;;;;;4.33;3.57;;;15.30;99.90;;;;;;4974452;28;20482;-71
2022/06/16 02:41:35;;;;;;;6.37;3.33;;;15.30;99.90;;;;;;4973720;28;20463;-71
2022/06/16 02:44:07;;;;;;;3.83;3.53;;;15.30;99.90;;;;;;4974543;28;20491;-71
2022/06/16 02:46:47;;;;;;;3.90;3.60;;;15.30;99.90;;;;;;4973656;28;20505;-72
2022/06/16 02:49:22;;;;;;;3.73;3.20;;;15.20;99.90;;;;;;4973623;28;20848;-71
2022/06/16 02:52:04;;;;;;;4.27;3.10;;;15.20;99.90;;;;;;4973175;28;20470;-71
2022/06/16 02:54:36;;;;;;;3.83;3.53;;;15.10;99.90;;;;;;4973511;28;20469;-71
2022/06/16 02:57:09;;;;;;;3.80;3.30;;;15.10;99.90;;;;;;4973120;28;20487;-71
2022/06/16 02:59:39;;;;;;;3.53;3.23;;;15.10;99.90;;;;;;4972433;28;20470;-71
2022/06/16 03:02:11;;;;;;;3.20;2.90;;;15.10;99.90;;;;;;4973166;28;20470;-71
2022/06/16 03:04:40;;;;;;;3.60;3.30;;;15.00;99.90;;;;;;4972594;28;20483;-71
2022/06/16 03:07:10;;;;;;;4.53;3.30;;;15.00;99.90;;;;;;4971818;28;20483;-71
2022/06/16 03:09:37;;;;;;;4.20;3.60;;;15.00;99.90;;;;;;4970774;28;20815;-71
2022/06/16 03:12:05;;;;;;;4.10;3.50;;;15.00;99.90;;;;;;4972998;28;20463;-71
2022/06/16 03:14:31;;;;;;;4.20;3.60;;;15.00;99.90;;;;;;4975220;28;20461;-71
2022/06/16 03:16:58;;;;;;;3.33;3.03;;;15.00;99.90;;;;;;4975323;28;20835;-71
2022/06/16 03:19:26;;;;;;;4.60;4.00;;;14.90;99.90;;;;;;4974599;28;20470;-71
2022/06/16 03:21:54;;;;;;;4.30;3.50;;;14.90;99.90;;;;;;4975533;28;20467;-71
2022/06/16 03:24:21;;;;;;;4.10;3.70;;;14.90;99.90;;;;;;4975054;28;20513;-71
2022/06/16 03:26:48;;;;;;;4.07;3.67;;;14.90;99.90;;;;;;4974971;28;20494;-71
2022/06/16 03:29:15;;;;;;;4.50;4.10;;;14.90;99.90;;;;;;4974651;28;20463;-71
2022/06/16 03:31:42;;;;;;;4.33;3.50;;;14.90;99.90;;;;;;4974674;28;20462;-71
2022/06/16 03:34:09;;;;;;;4.37;3.97;;;14.90;99.90;;;;;;4974987;28;20961;-71
2022/06/16 03:36:38;;;;;;;3.30;3.00;;;14.90;99.90;;;;;;4974538;28;20487;-71
2022/06/16 03:39:06;;;;;;;4.03;3.50;;;14.90;99.90;;;;;;4974858;28;20462;-71
2022/06/16 03:41:33;;;;;;;4.43;4.03;;;14.90;99.90;;;;;;4974478;28;20463;-71
2022/06/16 03:44:00;;;;;;;3.80;3.40;;;15.00;99.90;;;;;;4975018;28;20497;-71
2022/06/16 03:46:27;;;;;;;3.87;3.57;;;15.00;99.90;;;;;;4974582;28;20490;-71
2022/06/16 03:48:54;;;;;;;5.10;3.67;;;15.00;99.90;;;;;;4974561;28;20486;-71
2022/06/16 03:51:20;;;;;;;4.27;3.80;;;15.00;99.90;;;;;;4974207;28;20474;-71
2022/06/16 03:53:49;;;;;;;3.83;3.43;;;15.10;99.90;;;;;;4974493;28;20459;-71
2022/06/16 03:56:16;;;;;;;3.70;3.40;;;15.10;99.90;;;;;;4974519;28;20518;-72
2022/06/16 03:58:43;;;;;;;4.20;3.80;;;15.10;99.90;;;;;;4974217;28;20470;-72
2022/06/16 04:01:10;;;;;;;3.73;3.43;;;15.20;99.90;;;;;;4974129;28;20470;-71
2022/06/16 04:06:21;;;;;;;4.00;3.70;;;15.40;99.90;;;;;;4974608;28;20462;-71
2022/06/16 04:08:49;;;;;;;3.53;3.20;;;15.50;99.90;;;;;;4974117;28;20467;-71
2022/06/16 04:11:28;;;;;;;4.27;3.87;;;15.60;99.90;;;;;;4974043;28;20459;-71
2022/06/16 04:13:56;;;;;;;4.00;3.50;;;15.70;99.90;;;;;;4974426;28;21005;-71
2022/06/16 04:16:22;;;;;;;3.43;3.13;;;15.80;99.90;;;;;;4975378;28;20561;-71
2022/06/16 04:18:49;;;;;;;3.80;3.43;;;16.00;99.90;;;;;;4975349;28;20467;-71
2022/06/16 04:21:16;;;;;;;6.20;3.67;;;16.10;99.90;;;;;;4975007;28;20473;-71
2022/06/16 04:23:43;;;;;;;3.53;3.23;;;16.20;99.90;;;;;;4974639;28;20493;-72
2022/06/16 04:26:11;;;;;;;5.50;4.07;;;16.20;99.90;;;;;;4974959;28;20827;-71
2022/06/16 04:28:37;;;;;;;4.07;3.77;;;16.30;99.90;;;;;;4974344;28;20471;-71
2022/06/16 04:31:04;;;;;;;4.97;3.60;;;16.40;99.90;;;;;;5053551;23;20569;-70
2022/06/16 04:33:31;;;;;;;3.60;3.30;;;16.50;99.90;;;;;;4993369;28;20481;-70
2022/06/16 04:35:58;;;;;;;3.40;3.00;;;16.50;99.90;;;;;;4993040;28;20984;-70
2022/06/16 04:38:26;;;;;;;4.90;3.37;;;16.60;99.90;;;;;;4993232;28;20469;-70
2022/06/16 04:40:53;;;;;;;4.17;3.77;;;16.70;99.90;;;;;;4992571;28;20466;-70
2022/06/16 04:43:21;;;;;;;3.77;3.47;;;16.80;99.90;;;;;;4992955;28;20462;-70
2022/06/16 04:45:47;;;;;;;4.50;3.10;;;16.90;99.90;;;;;;4993036;28;20458;-71
2022/06/16 04:48:14;;;;;;;3.63;3.33;;;17.00;99.90;;;;;;4992636;28;20482;-70
2022/06/16 04:50:41;;;;;;;4.43;3.30;;;17.00;99.90;;;;;;4992382;28;20470;-70
2022/06/16 04:53:08;;;;;;;5.67;3.70;;;17.20;99.90;;;;;;4992518;28;20883;-68
2022/06/16 04:55:35;;;;;;;3.93;3.00;;;17.30;99.90;;;;;;4992933;28;20469;-68
2022/06/16 04:58:02;;;;;;;3.73;3.43;;;17.30;99.90;;;;;;4992206;28;20478;-67
2022/06/16 05:00:30;;;;;;;3.83;3.50;;;17.40;99.90;;;;;;4992339;28;20473;-69
2022/06/16 05:02:57;;;;;;;4.30;3.80;;;17.60;99.90;;;;;;4992563;28;20974;-68
2022/06/16 05:05:24;;;;;;;3.40;3.10;;;17.60;99.90;;;;;;4992433;28;21004;-68
2022/06/16 05:07:51;;;;;;;3.50;3.20;;;17.80;99.90;;;;;;4992526;28;20861;-68
2022/06/16 05:10:18;;;;;;;5.63;3.40;;;17.90;99.90;;;;;;4991412;28;20953;-69
2022/06/16 05:12:45;;;;;;;3.67;3.37;;;18.00;99.90;;;;;;4992382;28;20473;-68
2022/06/16 05:15:12;;;;;;;8.13;3.50;;;18.10;99.90;;;;;;4991088;28;20469;-67
2022/06/16 05:17:40;;;;;;;3.20;2.90;;;18.20;99.90;;;;;;4990423;28;20482;-67
2022/06/16 05:20:07;;;;;;;4.07;3.23;;;18.30;99.90;;;;;;4990106;28;20846;-67
2022/06/16 05:22:34;;;;;;;3.60;3.30;;;18.40;99.20;;;;;;4992458;28;20826;-68
2022/06/16 05:25:01;;;;;;;3.50;3.20;;;18.50;98.30;;;;;;4991924;28;20486;-68
2022/06/16 05:27:27;;;;;;;4.77;3.53;;;18.70;97.20;;;;;;4991981;28;20482;-68
2022/06/16 05:29:54;;;;;;;3.30;3.00;;;18.90;97.00;;;;;;4991842;28;20458;-69
2022/06/16 05:32:21;;;;;;;3.40;3.10;;;19.10;97.20;;;;;;4992323;28;21110;-70
2022/06/16 05:34:49;;;;;;;3.30;3.00;;;19.30;97.20;;;;;;4990980;28;20458;-71
2022/06/16 05:37:17;;;;;;;3.47;3.17;;;19.40;98.60;;;;;;4991652;28;20482;-70
2022/06/16 05:39:44;;;;;;;3.63;3.30;;;19.50;99.10;;;;;;4991664;28;20468;-70
2022/06/16 05:42:12;;;;;;;3.70;2.97;;;19.70;99.90;;;;;;4991575;28;20472;-70
2022/06/16 05:44:38;;;;;;;4.40;3.37;;;19.70;99.90;;;;;;4991552;28;21082;-71
2022/06/16 05:47:06;;;;;;;4.13;3.10;;;19.60;99.90;;;;;;4991997;28;20486;-71
2022/06/16 05:49:38;;;;;;;3.70;3.40;;;19.70;99.90;;;;;;4990658;28;20565;-70
2022/06/16 05:52:09;;;;;;;3.50;3.20;;;19.70;99.90;;;;;;4991550;28;20490;-70
2022/06/16 05:54:36;;;;;;;4.60;3.70;;;19.70;99.90;;;;;;4991630;28;20462;-70
2022/06/16 05:57:03;;;;;;;3.37;2.90;;;19.70;99.90;;;;;;4985313;28;20478;-69
2022/06/16 05:59:30;;;;;;;3.70;3.30;;;19.80;99.90;;;;;;4990884;28;20494;-70
2022/06/16 06:01:57;;;;;;;3.40;3.00;;;19.90;99.90;;;;;;4991442;28;20486;-70
2022/06/16 06:04:24;;;;;;;3.90;3.60;;;20.00;99.90;;;;;;4991575;28;20525;-70
2022/06/16 06:06:51;;;;;;;3.47;3.17;;;20.10;99.90;;;;;;4990650;28;20493;-70
2022/06/16 06:17:34;;;;;;;4.90;3.20;;;20.50;99.90;;;;;;4991065;28;20457;-70
2022/06/16 06:20:00;;;;;;;3.67;3.37;;;20.50;99.90;;;;;;4989734;28;20469;-67
2022/06/16 06:22:27;;;;;;;3.47;3.23;;;20.50;99.90;;;;;;4991525;28;20465;-68
2022/06/16 06:24:58;;;;;;;3.63;3.03;;;20.50;99.90;;;;;;4991053;28;20490;-67
2022/06/16 06:27:30;;;;;;;5.20;3.83;;;20.40;99.90;;;;;;4991248;28;20568;-68
2022/06/16 06:29:57;;;;;;;3.87;3.43;;;20.40;99.90;;;;;;4990233;28;20826;-68
2022/06/16 06:32:25;;;;;;;5.27;3.40;;;20.50;99.40;;;;;;4991398;28;20468;-67
2022/06/16 06:34:52;;;;;;;3.63;3.30;;;20.70;99.90;;;;;;4990812;28;20485;-68
2022/06/16 06:37:22;;;;;;;5.63;3.80;;;20.80;99.40;;;;;;4991279;28;20477;-70
2022/06/16 06:39:50;;;;;;;4.10;3.30;;;20.90;98.30;;;;;;4990461;28;20462;-70
2022/06/16 06:42:19;;;;;;;3.40;3.10;;;21.10;99.60;;;;;;4991085;28;20466;-70
2022/06/16 06:44:46;;;;;;;4.33;3.40;;;21.30;99.10;;;;;;4990774;28;20482;-70
2022/06/16 06:47:18;;;;;;;4.60;3.53;;;21.50;98.60;;;;;;4993211;28;20480;-71
2022/06/16 06:49:45;;;;;;;3.80;3.50;;;21.70;97.30;;;;;;4994529;28;20497;-71
2022/06/16 06:52:11;;;;;;;4.23;3.10;;;21.80;97.20;;;;;;4994731;28;20469;-71
2022/06/16 06:54:38;;;;;;;3.60;3.30;;;21.90;97.50;;;;;;4994966;28;20466;-72
2022/06/16 06:57:06;;;;;;;3.47;3.27;;;22.00;98.00;;;;;;4994723;28;20548;-72
2022/06/16 06:59:34;;;;;;;3.70;3.40;;;22.00;97.90;;;;;;4994102;28;20835;-68
2022/06/16 07:02:01;;;;;;;3.53;3.20;;;22.20;98.60;;;;;;4994838;28;20492;-71
2022/06/16 07:04:27;;;;;;;4.50;3.70;;;22.30;99.20;;;;;;4994603;28;20493;-71
2022/06/16 07:06:54;;;;;;;3.60;3.30;;;22.50;99.90;;;;;;4994599;28;20490;-69
2022/06/16 07:09:21;;;;;;;5.27;3.53;;;22.60;99.50;;;;;;4990186;28;20753;-68
2022/06/16 07:11:47;;;;;;;4.43;3.53;;;22.80;99.10;;;;;;4991642;28;20992;-69
2022/06/16 07:14:14;;;;;;;3.60;3.30;;;23.00;99.60;;;;;;4992814;28;20473;-68
2022/06/16 07:16:43;;;;;;;4.53;3.43;;;23.10;97.70;;;;;;4992359;28;20597;-68
2022/06/16 07:19:10;;;;;;;3.67;3.37;;;23.30;98.30;;;;;;4991660;28;20470;-68
2022/06/16 07:21:37;;;;;;;3.63;3.33;;;23.40;99.10;;;;;;4991756;28;20454;-68
2022/06/16 07:24:04;;;;;;;3.73;3.43;;;23.60;98.90;;;;;;4992178;28;20464;-71
2022/06/16 07:26:32;;;;;;;4.60;3.57;;;23.80;97.40;;;;;;4992262;28;20473;-68
2022/06/16 07:29:00;;;;;;;4.70;3.60;;;23.90;97.50;;;;;;4991350;28;20512;-68
2022/06/16 07:31:27;;;;;;;4.70;3.50;;;24.10;98.60;;;;;;4991468;28;20465;-69
2022/06/16 07:33:55;;;;;;;3.77;3.37;;;24.30;99.40;;;;;;4991759;28;21029;-69
2022/06/16 07:36:21;;;;;;;5.37;3.70;;;24.40;98.90;;;;;;4991349;28;20485;-68
2022/06/16 07:38:49;;;;;;;4.27;3.87;;;24.60;97.10;;;;;;4991884;28;20953;-68
2022/06/16 07:41:35;;;;;;;3.53;2.93;;;24.50;97.10;;;;;;4991225;28;20524;-69
2022/06/16 07:44:03;;;;;;;3.83;3.50;;;24.50;97.00;;;;;;4991765;28;20521;-67
2022/06/16 07:46:30;;;;;;;3.70;3.40;;;24.60;96.80;;;;;;4991695;28;20470;-66
2022/06/16 07:48:58;;;;;;;4.60;4.13;;;24.60;96.70;;;;;;4991707;28;20454;-68
2022/06/16 07:51:25;;;;;;;5.37;4.10;;;24.60;96.50;;;;;;4991407;28;20490;-68
2022/06/16 07:53:52;;;;;;;4.87;3.53;;;24.60;96.10;;;;;;4991288;28;20454;-69
2022/06/16 07:56:20;;;;;;;4.50;3.70;;;24.40;95.90;;;;;;4988369;28;20474;-66
2022/06/16 07:58:47;;;;;;;5.57;3.70;;;24.40;96.40;;;;;;4987217;28;21067;-68
2022/06/16 08:01:13;;;;;;;3.93;3.60;;;24.30;97.00;;;;;;4989426;28;20820;-69
2022/06/16 08:03:40;;;;;;;7.87;4.67;;;24.30;97.00;;;;;;4991231;28;20465;-69
2022/06/16 08:06:11;;;;;;;4.13;3.73;;;24.40;97.40;;;;;;4991066;28;20493;-67
2022/06/16 08:08:38;;;;;;;4.63;3.70;;;24.60;97.50;;;;;;4991440;28;20999;-69
2022/06/16 08:11:06;;;;;;;4.63;4.23;;;24.70;98.10;;;;;;4990547;28;20462;-69
2022/06/16 08:13:33;;;;;;;3.80;3.50;;;24.70;97.70;;;;;;4985934;28;20466;-69
2022/06/16 08:16:00;;;;;;;5.30;3.93;;;24.80;97.30;;;;;;4988014;28;20465;-70
2022/06/16 08:18:26;;;;;;;6.33;3.97;;;24.90;97.10;;;;;;4989924;28;20494;-67
2022/06/16 08:20:54;;;;;;;5.00;4.00;;;25.00;99.20;;;;;;4989230;28;20847;-69
2022/06/16 08:23:22;;;;;;;5.40;3.83;;;25.00;98.60;;;;;;4990207;28;20836;-69
2022/06/16 08:25:49;;;;;;;3.93;3.60;;;25.20;98.50;;;;;;4989748;28;20505;-69
2022/06/16 08:28:19;;;;;;;5.53;3.97;;;25.30;98.70;;;;;;4989851;28;20477;-69
2022/06/16 08:30:46;;;;;;;4.77;4.23;;;25.30;96.80;;;;;;4989005;28;20470;-69
2022/06/16 08:33:16;;;;;;;4.27;3.87;;;25.30;97.10;;;;;;4990304;28;20458;-69
2022/06/16 08:35:44;;;;;;;5.10;4.60;;;25.20;96.30;;;;;;4989413;28;20454;-68
2022/06/16 08:38:12;;;;;;;5.73;4.50;;;25.10;96.00;;;;;;4989525;28;20908;-69
2022/06/16 08:40:44;;;;;;;5.27;4.40;;;25.10;98.00;;;;;;4989241;28;20463;-67
2022/06/16 08:43:21;;;;;;;6.60;4.43;;;25.10;96.80;;;;;;4989768;28;20477;-70
2022/06/16 08:45:54;;;;;;;5.93;4.23;;;25.00;97.20;;;;;;4989585;28;20486;-70
2022/06/16 08:48:34;;;;;;;5.47;4.97;;;25.00;96.80;;;;;;4990007;28;20848;-69
2022/06/16 08:51:07;;;;;;;5.20;3.93;;;24.90;97.00;;;;;;4988331;28;20541;-70
2022/06/16 08:54:03;;;;;;;4.13;3.73;;;24.90;97.50;;;;;;4989848;28;20465;-68
2022/06/16 08:56:41;;;;;;;4.73;3.70;;;24.80;94.60;;;;;;4988122;28;20919;-67
2022/06/16 08:59:14;;;;;;;4.70;3.97;;;24.90;96.30;;;;;;4989764;28;20458;-69
2022/06/16 09:01:44;;;;;;;4.43;4.13;;;24.70;94.60;;;;;;4989502;28;20564;-70
2022/06/16 09:04:16;;;;;;;6.73;4.17;;;24.60;95.40;;;;;;4987752;28;20466;-70
2022/06/16 09:06:54;;;;;;;3.87;3.33;;;24.60;95.30;;;;;;4989659;28;20486;-67
2022/06/16 09:12:57;;;;;;;4.53;3.70;;;24.90;95.80;;;;;;4988684;28;20512;-69
2022/06/16 09:15:32;;;;;;;6.27;4.10;;;25.10;94.80;;;;;;4951373;28;20455;-69
2022/06/16 09:18:09;;;;;;;3.90;3.50;;;25.10;95.50;;;;;;4988992;28;20560;-70
2022/06/16 09:20:44;;;;;;;5.73;3.43;;;25.30;96.10;;;;;;4987640;28;20458;-69
2022/06/16 09:23:29;;;;;;;4.10;3.60;;;25.50;94.80;;;;;;4989452;28;20556;-70
2022/06/16 09:26:10;;;;;;;3.50;3.20;;;25.70;95.20;;;;;;4986769;28;20493;-70
2022/06/16 09:28:45;;;;;;;4.20;3.40;;;25.80;94.10;;;;;;4988630;28;20462;-70
2022/06/16 09:31:20;;;;;;;5.20;4.00;;;25.90;93.80;;;;;;4988016;28;20556;-70
2022/06/16 09:33:52;;;;;;;3.90;3.33;;;26.00;93.70;;;;;;4985396;28;20848;-71
2022/06/16 09:36:25;;;;;;;5.23;3.50;;;26.00;93.40;;;;;;4987346;28;20474;-69
2022/06/16 09:38:55;;;;;;;6.10;4.27;;;26.20;93.50;;;;;;4988098;28;20875;-69
2022/06/16 09:44:22;;;;;;;9.23;3.90;;;26.50;93.60;;;;;;4988575;28;20504;-70
2022/06/16 09:46:55;;;;;;;4.20;3.80;;;26.60;93.20;;;;;;4987022;28;21009;-70
2022/06/16 09:49:26;;;;;;;3.50;2.97;;;26.70;93.60;;;;;;4984592;28;20490;-73
2022/06/16 09:51:59;;;;;;;4.13;3.70;;;26.90;93.60;;;;;;4983898;28;20462;-71
2022/06/16 09:54:32;;;;;;;3.50;3.20;;;27.10;93.60;;;;;;4986319;28;20462;-72
2022/06/16 09:57:03;;;;;;;3.47;3.17;;;27.40;92.90;;;;;;4983371;28;20557;-72
2022/06/16 09:59:35;;;;;;;6.37;3.80;;;27.60;93.70;;;;;;4985680;28;20466;-73
2022/06/16 10:02:06;;;;;;;7.10;3.50;;;27.90;92.90;;;;;;4985151;28;20456;-72
2022/06/16 10:04:33;;;;;;;5.10;3.87;;;28.10;91.70;;;;;;4987996;28;20477;-73
2022/06/16 10:07:10;;;;;;;6.07;3.43;;;27.90;92.60;;;;;;4986956;28;20548;-72
2022/06/16 10:09:46;;;;;;;5.10;3.73;;;27.90;92.20;;;;;;4988252;28;20458;-71
2022/06/16 10:12:22;;;;;;;4.17;3.77;;;27.90;91.70;;;;;;4985806;28;20847;-73
2022/06/16 10:14:56;;;;;;;3.47;3.17;;;27.80;92.40;;;;;;4988638;28;20529;-72
2022/06/16 10:17:23;;;;;;;5.10;3.40;;;27.70;91.20;;;;;;4985211;28;20487;-69
2022/06/16 10:19:52;;;;;;;6.20;4.17;;;27.60;92.30;;;;;;4986444;28;20460;-70
2022/06/16 10:22:21;;;;;;;4.03;3.63;;;27.70;92.70;;;;;;4988106;28;20459;-70
2022/06/16 10:24:54;;;;;;;5.40;4.17;;;27.90;93.20;;;;;;4987688;28;20879;-68
2022/06/16 10:27:22;;;;;;;3.50;3.20;;;27.90;93.30;;;;;;4987877;28;20479;-70
2022/06/16 10:29:57;;;;;;;5.20;3.70;;;28.00;92.70;;;;;;4983911;28;20468;-69
2022/06/16 10:32:37;;;;;;;5.33;3.70;;;28.20;92.50;;;;;;5038303;23;20502;-92
2022/06/16 10:35:07;;;;;;;3.80;3.40;;;28.40;92.70;;;;;;5019541;28;20430;-92
2022/06/16 10:43:38;;;;;;;3.83;3.53;;;28.50;92.80;;;;;;5026577;28;20461;-94
2022/06/16 10:46:14;;;;;;;4.63;4.17;;;28.60;93.00;;;;;;5026726;28;20544;-93
2022/06/16 10:48:49;;;;;;;3.67;3.33;;;28.60;91.30;;;;;;5017170;28;20462;-93
2022/06/16 10:51:19;;;;;;;3.77;3.40;;;28.50;93.20;;;;;;5026736;28;20507;-96
2022/06/16 10:53:49;;;;;;;5.80;3.70;;;28.50;92.40;;;;;;5016015;28;20483;-94
2022/06/16 10:56:23;;;;;;;4.00;3.60;;;28.60;92.40;;;;;;5025878;28;20524;-95
2022/06/16 10:58:58;;;;;;;5.10;3.67;;;28.50;92.90;;;;;;5023748;23;21334;-73
2022/06/16 11:01:34;;;;;;;4.50;4.10;;;28.60;91.80;;;;;;4988919;28;20455;-73
2022/06/16 11:04:06;;;;;;;4.30;3.90;;;28.70;93.10;;;;;;4988556;28;20470;-74
2022/06/16 11:06:33;;;;;;;5.83;4.47;;;28.80;92.90;;;;;;4989247;28;20521;-74
2022/06/16 11:09:03;;;;;;;4.17;3.77;;;28.90;92.00;;;;;;4988830;28;20622;-73
2022/06/16 11:11:39;;;;;;;5.10;3.60;;;28.90;91.80;;;;;;4988895;28;20812;-74
2022/06/16 11:14:11;;;;;;;4.20;3.80;;;29.10;92.60;;;;;;4989276;28;20454;-74
2022/06/16 11:16:47;;;;;;;6.33;4.03;;;29.20;92.20;;;;;;4988526;28;20479;-73
2022/06/16 11:19:24;;;;;;;5.10;4.00;;;29.10;91.60;;;;;;4987786;28;20460;-73
2022/06/16 11:21:52;;;;;;;6.80;4.37;;;29.20;91.10;;;;;;4988179;28;20500;-74
2022/06/16 11:24:25;;;;;;;4.30;3.90;;;29.20;91.80;;;;;;4988648;28;20461;-74
2022/06/16 11:26:54;;;;;;;6.70;3.80;;;29.20;93.10;;;;;;4988591;28;20491;-74
2022/06/16 11:29:30;;;;;;;6.27;3.70;;;29.30;92.00;;;;;;4987929;28;20524;-74
2022/06/16 11:32:10;;;;;;;3.77;3.30;;;29.30;91.20;;;;;;4988646;28;20493;-73
2022/06/16 11:34:40;;;;;;;4.00;3.70;;;29.40;92.00;;;;;;4991726;28;20551;-74
2022/06/16 11:37:27;;;;;;;4.20;3.80;;;29.50;93.00;;;;;;4993382;28;20485;-73
2022/06/16 11:40:04;;;;;;;5.40;3.60;;;29.50;91.50;;;;;;4992903;28;20470;-74
2022/06/16 11:42:45;;;;;;;3.83;3.40;;;29.50;92.30;;;;;;4991303;28;20520;-74
2022/06/16 11:45:22;;;;;;;4.50;3.63;;;29.50;91.10;;;;;;4991083;28;20473;-74
2022/06/16 11:47:56;;;;;;;4.30;3.60;;;29.50;92.00;;;;;;4991919;28;20619;-74
2022/06/16 11:50:32;;;;;;;4.67;3.70;;;29.40;91.60;;;;;;4993116;28;20469;-74
2022/06/16 11:53:09;;;;;;;4.27;3.83;;;29.40;93.50;;;;;;4993067;28;20471;-73
2022/06/16 11:55:40;;;;;;;5.73;3.63;;;29.60;92.60;;;;;;4993315;28;20489;-74
2022/06/16 11:58:35;;;;;;;3.90;3.50;;;29.70;91.60;;;;;;4992852;28;20490;-74
2022/06/16 12:01:05;;;;;;;4.40;3.33;;;29.60;90.20;;;;;;4992754;28;20843;-74
2022/06/16 12:03:59;;;;;;;7.07;3.93;;;29.60;91.10;;;;;;4992797;28;20970;-74
2022/06/16 12:06:53;;;;;;;16.67;4.90;;;29.60;90.60;;;;;;4990784;28;20542;-74
2022/06/16 12:09:33;;;;;;;6.13;3.90;;;29.70;91.80;;;;;;4991653;28;21361;-74
2022/06/16 12:12:06;;;;;;;5.40;3.70;;;29.70;91.70;;;;;;4989203;28;20502;-74
2022/06/16 12:14:47;;;;;;;4.77;3.47;;;29.70;88.40;;;;;;4990873;28;20463;-74
2022/06/16 12:17:18;;;;;;;4.23;3.80;;;29.60;89.50;;;;;;4989425;28;20481;-74
2022/06/16 12:19:55;;;;;;;5.63;3.20;;;29.60;90.60;;;;;;4989591;28;20483;-74
2022/06/16 12:22:26;;;;;;;23.90;6.80;;;29.70;91.20;;;;;;4989947;28;20879;-74
2022/06/16 12:24:59;;;;;;;3.70;3.20;;;29.80;90.40;;;;;;4990603;28;20963;-73
2022/06/16 12:27:30;;;;;;;5.20;3.30;;;30.00;90.30;;;;;;4989872;28;20486;-72
2022/06/16 12:30:05;;;;;;;6.43;3.60;;;30.10;92.00;;;;;;4989755;28;20461;-72
2022/06/16 12:32:44;;;;;;;4.13;3.73;;;30.30;91.20;;;;;;4990163;28;20497;-72
2022/06/16 12:35:19;;;;;;;3.83;3.23;;;30.30;90.40;;;;;;4990836;28;20467;-72
2022/06/16 12:37:51;;;;;;;4.20;3.80;;;30.20;88.20;;;;;;4990454;28;20480;-72
2022/06/16 12:40:24;;;;;;;3.73;3.33;;;30.30;91.40;;;;;;4989443;28;20453;-72
2022/06/16 12:42:54;;;;;;;3.83;3.23;;;30.50;88.80;;;;;;4990138;28;20461;-74
2022/06/16 12:45:25;;;;;;;3.40;3.00;;;30.50;90.00;;;;;;4989896;28;20454;-73
2022/06/16 12:47:58;;;;;;;4.63;2.80;;;30.40;89.00;;;;;;4989731;28;20489;-73
2022/06/16 12:50:33;;;;;;;3.60;3.30;;;30.30;90.10;;;;;;4989862;28;20467;-73
2022/06/16 12:53:06;;;;;;;3.90;3.47;;;30.10;90.50;;;;;;4989571;28;20473;-73
2022/06/16 12:55:40;;;;;;;4.40;3.63;;;30.10;88.80;;;;;;4989539;28;20462;-73
2022/06/16 12:58:13;;;;;;;3.93;3.63;;;30.20;89.10;;;;;;4989777;28;20493;-73
2022/06/16 13:00:44;;;;;;;4.90;3.93;;;30.30;87.90;;;;;;4988270;28;20484;-73
2022/06/16 13:03:20;;;;;;;3.60;3.30;;;30.20;89.40;;;;;;4990168;28;20460;-73
2022/06/16 13:05:48;;;;;;;3.33;3.03;;;30.40;87.60;;;;;;4989015;28;20555;-73
2022/06/16 13:08:16;;;;;;;3.60;3.30;;;30.50;88.90;;;;;;4989325;28;20487;-73
2022/06/16 13:10:47;;;;;;;3.37;3.17;;;30.30;84.50;;;;;;4988478;28;20468;-73
2022/06/16 13:13:22;;;;;;;4.90;3.20;;;30.30;84.10;;;;;;4990150;28;20843;-73
2022/06/16 13:15:55;;;;;;;3.00;2.70;;;30.20;82.60;;;;;;4988300;28;20496;-72
2022/06/16 13:18:25;;;;;;;4.43;3.30;;;30.20;82.20;;;;;;4989421;28;20465;-73
2022/06/16 13:20:59;;;;;;;3.43;3.13;;;30.30;85.90;;;;;;4989262;28;20464;-73
2022/06/16 13:23:32;;;;;;;6.10;3.47;;;30.30;87.20;;;;;;4989490;28;20468;-73
2022/06/16 13:26:18;;;;;;;4.33;3.03;;;30.50;83.80;;;;;;4989604;28;20463;-73
2022/06/16 13:28:53;;;;;;;4.10;3.50;;;30.40;83.70;;;;;;4988798;28;20472;-73
2022/06/16 13:31:24;;;;;;;3.60;3.07;;;30.30;88.20;;;;;;4988813;28;20571;-73
2022/06/16 13:34:12;;;;;;;3.93;3.50;;;30.30;81.70;;;;;;4989135;28;20477;-73